sensor_id;sensor_type;location;lat;lon;timestamp;temperature;humidity
12853;DHT22;6495;51.808;7.478;2023-02-22T00:00:59;9.10;99.90
12853;DHT22;6495;51.808;7.478;2023-02-22T00:03:35;9.10;99.90
12853;DHT22;6495;51.808;7.478;2023-02-22T00:06:05;9.10;99.90
12853;DHT22;6495;51.808;7.478;2023-02-22T00:08:34;9.20;99.90
12853;DHT22;6495;51.808;7.478;2023-02-22T00:11:05;9.10;99.90
12853;DHT22;6495;51.808;7.478;2023-02-22T00:13:35;9.10;99.90
12853;DHT22;6495;51.808;7.478;2023-02-22T00:16:05;9.20;99.90
12853;DHT22;6495;51.808;7.478;2023-02-22T00:18:35;9.10;99.90
12853;DHT22;6495;51.808;7.478;2023-02-22T00:21:04;9.20;99.90
12853;DHT22;6495;51.808;7.478;2023-02-22T00:23:38;9.10;99.90
12853;DHT22;6495;51.808;7.478;2023-02-22T00:26:08;9.10;99.90
12853;DHT22;6495;51.808;7.478;2023-02-22T00:28:37;9.10;99.90
12853;DHT22;6495;51.808;7.478;2023-02-22T00:31:06;9.10;99.90
12853;DHT22;6495;51.808;7.478;2023-02-22T00:33:37;9.10;99.90
12853;DHT22;6495;51.808;7.478;2023-02-22T00:36:07;9.10;99.90
12853;DHT22;6495;51.808;7.478;2023-02-22T00:38:36;9.10;99.90
12853;DHT22;6495;51.808;7.478;2023-02-22T00:41:05;9.10;99.90
12853;DHT22;6495;51.808;7.478;2023-02-22T00:43:33;9.10;99.90
12853;DHT22;6495;51.808;7.478;2023-02-22T00:46:02;9.10;99.90
12853;DHT22;6495;51.808;7.478;2023-02-22T00:48:30;9.10;99.90
12853;DHT22;6495;51.808;7.478;2023-02-22T00:51:00;9.10;99.90
12853;DHT22;6495;51.808;7.478;2023-02-22T00:53:28;9.10;99.90
12853;DHT22;6495;51.808;7.478;2023-02-22T00:55:56;9.10;99.90
12853;DHT22;6495;51.808;7.478;2023-02-22T00:58:26;9.10;99.90
12853;DHT22;6495;51.808;7.478;2023-02-22T01:00:56;9.00;99.90
12853;DHT22;6495;51.808;7.478;2023-02-22T01:03:24;9.00;99.90
12853;DHT22;6495;51.808;7.478;2023-02-22T01:05:52;9.00;99.90
12853;DHT22;6495;51.808;7.478;2023-02-22T01:08:22;9.00;99.90
12853;DHT22;6495;51.808;7.478;2023-02-22T01:10:50;9.00;99.90
12853;DHT22;6495;51.808;7.478;2023-02-22T01:13:19;8.90;99.90
12853;DHT22;6495;51.808;7.478;2023-02-22T01:15:47;8.90;99.90
12853;DHT22;6495;51.808;7.478;2023-02-22T01:18:15;8.90;99.90
12853;DHT22;6495;51.808;7.478;2023-02-22T01:20:43;8.80;99.90
12853;DHT22;6495;51.808;7.478;2023-02-22T01:23:14;8.80;99.90
12853;DHT22;6495;51.808;7.478;2023-02-22T01:25:44;8.80;99.90
12853;DHT22;6495;51.808;7.478;2023-02-22T01:28:13;8.80;99.90
12853;DHT22;6495;51.808;7.478;2023-02-22T01:30:41;8.80;99.90
12853;DHT22;6495;51.808;7.478;2023-02-22T01:33:10;8.80;99.90
12853;DHT22;6495;51.808;7.478;2023-02-22T01:35:40;8.80;99.90
12853;DHT22;6495;51.808;7.478;2023-02-22T01:38:09;8.70;99.90
12853;DHT22;6495;51.808;7.478;2023-02-22T01:40:40;8.70;99.90
12853;DHT22;6495;51.808;7.478;2023-02-22T01:43:20;8.60;99.90
12853;DHT22;6495;51.808;7.478;2023-02-22T01:45:54;8.60;99.90
12853;DHT22;6495;51.808;7.478;2023-02-22T01:48:31;8.60;99.90
12853;DHT22;6495;51.808;7.478;2023-02-22T01:51:07;8.60;99.90
12853;DHT22;6495;51.808;7.478;2023-02-22T01:53:43;8.60;99.90
12853;DHT22;6495;51.808;7.478;2023-02-22T01:56:16;8.60;99.90
12853;DHT22;6495;51.808;7.478;2023-02-22T01:58:49;8.60;99.90
12853;DHT22;6495;51.808;7.478;2023-02-22T02:01:23;8.60;99.90
12853;DHT22;6495;51.808;7.478;2023-02-22T02:03:56;8.60;99.90
12853;DHT22;6495;51.808;7.478;2023-02-22T02:06:28;8.60;99.90
12853;DHT22;6495;51.808;7.478;2023-02-22T02:09:03;8.60;99.90
12853;DHT22;6495;51.808;7.478;2023-02-22T02:11:37;8.60;99.90
12853;DHT22;6495;51.808;7.478;2023-02-22T02:14:09;8.60;99.90
12853;DHT22;6495;51.808;7.478;2023-02-22T02:16:39;8.60;99.90
12853;DHT22;6495;51.808;7.478;2023-02-22T02:19:17;8.50;99.90
12853;DHT22;6495;51.808;7.478;2023-02-22T02:22:12;8.60;99.90
12853;DHT22;6495;51.808;7.478;2023-02-22T02:34:49;8.60;99.90
12853;DHT22;6495;51.808;7.478;2023-02-22T02:37:32;8.50;99.90
12853;DHT22;6495;51.808;7.478;2023-02-22T02:40:10;8.50;99.90
12853;DHT22;6495;51.808;7.478;2023-02-22T02:42:54;8.50;99.90
12853;DHT22;6495;51.808;7.478;2023-02-22T02:45:31;8.40;99.90
12853;DHT22;6495;51.808;7.478;2023-02-22T02:48:04;8.40;99.90
12853;DHT22;6495;51.808;7.478;2023-02-22T02:50:39;8.40;99.90
12853;DHT22;6495;51.808;7.478;2023-02-22T02:53:12;8.40;99.90
12853;DHT22;6495;51.808;7.478;2023-02-22T02:55:44;8.40;99.90
12853;DHT22;6495;51.808;7.478;2023-02-22T02:58:17;8.40;99.90
12853;DHT22;6495;51.808;7.478;2023-02-22T03:00:48;8.40;99.90
12853;DHT22;6495;51.808;7.478;2023-02-22T03:03:49;8.40;99.90
12853;DHT22;6495;51.808;7.478;2023-02-22T03:06:53;8.30;99.90
12853;DHT22;6495;51.808;7.478;2023-02-22T03:09:40;8.30;99.90
12853;DHT22;6495;51.808;7.478;2023-02-22T03:12:33;8.30;99.90
12853;DHT22;6495;51.808;7.478;2023-02-22T03:15:17;8.20;99.90
12853;DHT22;6495;51.808;7.478;2023-02-22T03:18:01;8.20;99.90
12853;DHT22;6495;51.808;7.478;2023-02-22T03:20:43;8.20;99.90
12853;DHT22;6495;51.808;7.478;2023-02-22T03:23:22;8.20;99.90
12853;DHT22;6495;51.808;7.478;2023-02-22T03:25:57;8.20;99.90
12853;DHT22;6495;51.808;7.478;2023-02-22T03:28:31;8.20;99.90
12853;DHT22;6495;51.808;7.478;2023-02-22T03:31:05;8.20;99.90
12853;DHT22;6495;51.808;7.478;2023-02-22T03:33:39;8.20;99.90
12853;DHT22;6495;51.808;7.478;2023-02-22T03:36:16;8.20;99.90
12853;DHT22;6495;51.808;7.478;2023-02-22T03:38:53;8.20;99.90
12853;DHT22;6495;51.808;7.478;2023-02-22T03:41:25;8.20;99.90
12853;DHT22;6495;51.808;7.478;2023-02-22T03:44:01;8.20;99.90
12853;DHT22;6495;51.808;7.478;2023-02-22T03:46:33;8.20;99.90
12853;DHT22;6495;51.808;7.478;2023-02-22T03:49:09;8.20;99.90
12853;DHT22;6495;51.808;7.478;2023-02-22T03:51:43;8.20;99.90
12853;DHT22;6495;51.808;7.478;2023-02-22T03:54:11;8.10;99.90
12853;DHT22;6495;51.808;7.478;2023-02-22T03:56:48;8.10;99.90
12853;DHT22;6495;51.808;7.478;2023-02-22T03:59:21;8.00;99.90
12853;DHT22;6495;51.808;7.478;2023-02-22T04:01:53;8.00;99.90
12853;DHT22;6495;51.808;7.478;2023-02-22T04:04:23;7.90;99.90
12853;DHT22;6495;51.808;7.478;2023-02-22T04:06:53;7.90;99.90
12853;DHT22;6495;51.808;7.478;2023-02-22T04:09:22;7.80;99.90
12853;DHT22;6495;51.808;7.478;2023-02-22T04:11:50;7.80;99.90
12853;DHT22;6495;51.808;7.478;2023-02-22T04:14:19;7.80;99.90
12853;DHT22;6495;51.808;7.478;2023-02-22T04:16:49;7.80;99.90
12853;DHT22;6495;51.808;7.478;2023-02-22T04:19:17;7.80;99.90
12853;DHT22;6495;51.808;7.478;2023-02-22T04:21:46;7.80;99.90
12853;DHT22;6495;51.808;7.478;2023-02-22T04:24:21;7.80;99.90
12853;DHT22;6495;51.808;7.478;2023-02-22T04:26:50;7.80;99.90
12853;DHT22;6495;51.808;7.478;2023-02-22T04:29:19;7.80;99.90
12853;DHT22;6495;51.808;7.478;2023-02-22T04:31:47;7.80;99.90
12853;DHT22;6495;51.808;7.478;2023-02-22T04:34:16;7.80;99.90
12853;DHT22;6495;51.808;7.478;2023-02-22T04:36:44;7.80;99.90
12853;DHT22;6495;51.808;7.478;2023-02-22T04:39:13;7.80;99.90
12853;DHT22;6495;51.808;7.478;2023-02-22T04:41:44;7.80;99.90
12853;DHT22;6495;51.808;7.478;2023-02-22T04:44:13;7.80;99.90
12853;DHT22;6495;51.808;7.478;2023-02-22T04:46:41;7.80;99.90
12853;DHT22;6495;51.808;7.478;2023-02-22T04:49:12;7.80;99.90
12853;DHT22;6495;51.808;7.478;2023-02-22T04:51:41;7.80;99.90
12853;DHT22;6495;51.808;7.478;2023-02-22T04:54:11;7.80;99.90
12853;DHT22;6495;51.808;7.478;2023-02-22T04:56:44;7.80;99.90
12853;DHT22;6495;51.808;7.478;2023-02-22T04:59:12;7.80;99.90
12853;DHT22;6495;51.808;7.478;2023-02-22T05:01:43;7.80;99.90
12853;DHT22;6495;51.808;7.478;2023-02-22T05:04:12;7.80;99.90
12853;DHT22;6495;51.808;7.478;2023-02-22T05:06:40;7.80;99.90
12853;DHT22;6495;51.808;7.478;2023-02-22T05:09:08;7.80;99.90
12853;DHT22;6495;51.808;7.478;2023-02-22T05:11:37;7.80;99.90
12853;DHT22;6495;51.808;7.478;2023-02-22T05:14:06;7.80;99.90
12853;DHT22;6495;51.808;7.478;2023-02-22T05:16:34;7.80;99.90
12853;DHT22;6495;51.808;7.478;2023-02-22T05:19:03;7.70;99.90
12853;DHT22;6495;51.808;7.478;2023-02-22T05:21:31;7.70;99.90
12853;DHT22;6495;51.808;7.478;2023-02-22T05:23:59;7.70;99.90
12853;DHT22;6495;51.808;7.478;2023-02-22T05:26:27;7.70;99.90
12853;DHT22;6495;51.808;7.478;2023-02-22T05:28:55;7.70;99.90
12853;DHT22;6495;51.808;7.478;2023-02-22T05:31:28;7.70;99.90
12853;DHT22;6495;51.808;7.478;2023-02-22T05:33:58;7.70;99.90
12853;DHT22;6495;51.808;7.478;2023-02-22T05:36:27;7.70;99.90
12853;DHT22;6495;51.808;7.478;2023-02-22T05:38:55;7.70;99.90
12853;DHT22;6495;51.808;7.478;2023-02-22T05:41:23;7.70;99.90
12853;DHT22;6495;51.808;7.478;2023-02-22T05:43:51;7.80;99.90
12853;DHT22;6495;51.808;7.478;2023-02-22T05:46:19;7.70;99.90
12853;DHT22;6495;51.808;7.478;2023-02-22T05:48:49;7.70;99.90
12853;DHT22;6495;51.808;7.478;2023-02-22T05:51:17;7.70;99.90
12853;DHT22;6495;51.808;7.478;2023-02-22T05:53:46;7.70;99.90
12853;DHT22;6495;51.808;7.478;2023-02-22T05:56:21;7.70;99.90
12853;DHT22;6495;51.808;7.478;2023-02-22T05:58:50;7.70;99.90
12853;DHT22;6495;51.808;7.478;2023-02-22T06:01:20;7.60;99.90
12853;DHT22;6495;51.808;7.478;2023-02-22T06:03:50;7.60;99.90
12853;DHT22;6495;51.808;7.478;2023-02-22T06:06:19;7.60;99.90
12853;DHT22;6495;51.808;7.478;2023-02-22T06:08:48;7.70;99.90
12853;DHT22;6495;51.808;7.478;2023-02-22T06:11:16;7.60;99.90
12853;DHT22;6495;51.808;7.478;2023-02-22T06:13:49;7.60;99.90
12853;DHT22;6495;51.808;7.478;2023-02-22T06:16:18;7.60;99.90
12853;DHT22;6495;51.808;7.478;2023-02-22T06:18:47;7.60;99.90
12853;DHT22;6495;51.808;7.478;2023-02-22T06:21:17;7.60;99.90
12853;DHT22;6495;51.808;7.478;2023-02-22T06:23:45;7.50;99.90
12853;DHT22;6495;51.808;7.478;2023-02-22T06:26:15;7.50;99.90
12853;DHT22;6495;51.808;7.478;2023-02-22T06:28:44;7.50;99.90
12853;DHT22;6495;51.808;7.478;2023-02-22T06:31:12;7.50;99.90
12853;DHT22;6495;51.808;7.478;2023-02-22T06:33:41;7.50;99.90
12853;DHT22;6495;51.808;7.478;2023-02-22T06:36:10;7.40;99.90
12853;DHT22;6495;51.808;7.478;2023-02-22T06:38:38;7.40;99.90
12853;DHT22;6495;51.808;7.478;2023-02-22T06:41:07;7.40;99.90
12853;DHT22;6495;51.808;7.478;2023-02-22T06:43:36;7.40;99.90
12853;DHT22;6495;51.808;7.478;2023-02-22T06:46:06;7.30;99.90
12853;DHT22;6495;51.808;7.478;2023-02-22T06:48:36;7.30;99.90
12853;DHT22;6495;51.808;7.478;2023-02-22T06:51:07;7.30;99.90
12853;DHT22;6495;51.808;7.478;2023-02-22T06:53:37;7.30;99.90
12853;DHT22;6495;51.808;7.478;2023-02-22T06:56:05;7.30;99.90
12853;DHT22;6495;51.808;7.478;2023-02-22T06:58:34;7.30;99.90
12853;DHT22;6495;51.808;7.478;2023-02-22T07:01:02;7.20;99.90
12853;DHT22;6495;51.808;7.478;2023-02-22T07:03:32;7.20;99.90
12853;DHT22;6495;51.808;7.478;2023-02-22T07:06:01;7.20;99.90
12853;DHT22;6495;51.808;7.478;2023-02-22T07:08:30;7.20;99.90
12853;DHT22;6495;51.808;7.478;2023-02-22T07:10:59;7.20;99.90
12853;DHT22;6495;51.808;7.478;2023-02-22T07:13:27;7.10;99.90
12853;DHT22;6495;51.808;7.478;2023-02-22T07:15:55;7.20;99.90
12853;DHT22;6495;51.808;7.478;2023-02-22T07:18:24;7.10;99.90
12853;DHT22;6495;51.808;7.478;2023-02-22T07:20:52;7.10;99.90
12853;DHT22;6495;51.808;7.478;2023-02-22T07:23:20;7.10;99.90
12853;DHT22;6495;51.808;7.478;2023-02-22T07:25:49;7.10;99.90
12853;DHT22;6495;51.808;7.478;2023-02-22T07:28:19;7.10;99.90
12853;DHT22;6495;51.808;7.478;2023-02-22T07:30:47;7.10;99.90
12853;DHT22;6495;51.808;7.478;2023-02-22T07:33:15;7.10;99.90
12853;DHT22;6495;51.808;7.478;2023-02-22T07:35:45;7.10;99.90
12853;DHT22;6495;51.808;7.478;2023-02-22T07:38:16;7.10;99.90
12853;DHT22;6495;51.808;7.478;2023-02-22T07:40:45;7.10;99.90
12853;DHT22;6495;51.808;7.478;2023-02-22T07:43:15;7.10;99.90
12853;DHT22;6495;51.808;7.478;2023-02-22T07:45:47;7.00;99.90
12853;DHT22;6495;51.808;7.478;2023-02-22T07:48:17;7.00;99.90
12853;DHT22;6495;51.808;7.478;2023-02-22T07:50:47;7.00;99.90
12853;DHT22;6495;51.808;7.478;2023-02-22T07:53:18;7.00;99.90
12853;DHT22;6495;51.808;7.478;2023-02-22T07:55:47;7.00;99.90
12853;DHT22;6495;51.808;7.478;2023-02-22T07:58:19;7.00;99.90
12853;DHT22;6495;51.808;7.478;2023-02-22T08:00:50;7.00;99.90
12853;DHT22;6495;51.808;7.478;2023-02-22T08:03:20;7.00;99.90
12853;DHT22;6495;51.808;7.478;2023-02-22T08:05:52;7.00;99.90
12853;DHT22;6495;51.808;7.478;2023-02-22T08:08:21;6.90;99.90
12853;DHT22;6495;51.808;7.478;2023-02-22T08:10:50;6.90;99.90
12853;DHT22;6495;51.808;7.478;2023-02-22T08:13:19;6.90;99.90
12853;DHT22;6495;51.808;7.478;2023-02-22T08:15:51;6.90;99.90
12853;DHT22;6495;51.808;7.478;2023-02-22T08:18:21;6.90;99.90
12853;DHT22;6495;51.808;7.478;2023-02-22T08:20:51;6.90;99.90
12853;DHT22;6495;51.808;7.478;2023-02-22T08:23:22;6.90;99.90
12853;DHT22;6495;51.808;7.478;2023-02-22T08:25:53;6.90;99.90
12853;DHT22;6495;51.808;7.478;2023-02-22T08:28:23;6.90;99.90
12853;DHT22;6495;51.808;7.478;2023-02-22T08:30:52;7.00;99.90
12853;DHT22;6495;51.808;7.478;2023-02-22T08:33:21;6.90;99.90
12853;DHT22;6495;51.808;7.478;2023-02-22T08:35:50;7.00;99.90
12853;DHT22;6495;51.808;7.478;2023-02-22T08:38:20;7.00;99.90
12853;DHT22;6495;51.808;7.478;2023-02-22T08:40:50;6.90;99.90
12853;DHT22;6495;51.808;7.478;2023-02-22T08:43:19;7.00;99.90
12853;DHT22;6495;51.808;7.478;2023-02-22T08:45:48;7.00;99.90
12853;DHT22;6495;51.808;7.478;2023-02-22T08:48:19;6.90;99.90
12853;DHT22;6495;51.808;7.478;2023-02-22T08:50:48;7.00;99.90
12853;DHT22;6495;51.808;7.478;2023-02-22T08:53:17;7.00;99.90
12853;DHT22;6495;51.808;7.478;2023-02-22T08:55:45;7.00;99.90
12853;DHT22;6495;51.808;7.478;2023-02-22T08:58:13;7.00;99.90
12853;DHT22;6495;51.808;7.478;2023-02-22T09:00:42;7.00;99.90
12853;DHT22;6495;51.808;7.478;2023-02-22T09:03:12;7.10;99.90
12853;DHT22;6495;51.808;7.478;2023-02-22T09:05:43;7.10;99.90
12853;DHT22;6495;51.808;7.478;2023-02-22T09:08:12;7.10;99.90
12853;DHT22;6495;51.808;7.478;2023-02-22T09:10:41;7.10;99.90
12853;DHT22;6495;51.808;7.478;2023-02-22T09:13:11;7.10;99.90
12853;DHT22;6495;51.808;7.478;2023-02-22T09:15:40;7.20;99.90
12853;DHT22;6495;51.808;7.478;2023-02-22T09:18:10;7.20;99.90
12853;DHT22;6495;51.808;7.478;2023-02-22T09:20:41;7.20;99.90
12853;DHT22;6495;51.808;7.478;2023-02-22T09:23:10;7.20;99.90
12853;DHT22;6495;51.808;7.478;2023-02-22T09:25:40;7.20;99.90
12853;DHT22;6495;51.808;7.478;2023-02-22T09:28:08;7.30;99.90
12853;DHT22;6495;51.808;7.478;2023-02-22T09:30:36;7.30;99.90
12853;DHT22;6495;51.808;7.478;2023-02-22T09:33:06;7.30;99.90
12853;DHT22;6495;51.808;7.478;2023-02-22T09:35:37;7.30;99.90
12853;DHT22;6495;51.808;7.478;2023-02-22T09:38:09;7.40;99.90
12853;DHT22;6495;51.808;7.478;2023-02-22T09:40:41;7.40;99.90
12853;DHT22;6495;51.808;7.478;2023-02-22T09:43:33;7.40;99.90
12853;DHT22;6495;51.808;7.478;2023-02-22T09:49:03;7.50;99.90
12853;DHT22;6495;51.808;7.478;2023-02-22T09:51:39;7.60;99.90
12853;DHT22;6495;51.808;7.478;2023-02-22T09:54:16;7.60;99.90
12853;DHT22;6495;51.808;7.478;2023-02-22T09:56:51;7.70;99.90
12853;DHT22;6495;51.808;7.478;2023-02-22T09:59:26;7.70;99.90
12853;DHT22;6495;51.808;7.478;2023-02-22T10:02:02;7.80;99.90
12853;DHT22;6495;51.808;7.478;2023-02-22T10:04:42;7.90;99.90
12853;DHT22;6495;51.808;7.478;2023-02-22T10:07:17;8.00;99.90
12853;DHT22;6495;51.808;7.478;2023-02-22T10:09:53;8.10;99.90
12853;DHT22;6495;51.808;7.478;2023-02-22T10:12:28;8.10;99.90
12853;DHT22;6495;51.808;7.478;2023-02-22T10:15:29;8.20;99.90
12853;DHT22;6495;51.808;7.478;2023-02-22T10:18:38;8.30;99.90
12853;DHT22;6495;51.808;7.478;2023-02-22T10:21:45;8.40;99.90
12853;DHT22;6495;51.808;7.478;2023-02-22T10:24:31;8.50;99.90
12853;DHT22;6495;51.808;7.478;2023-02-22T10:27:14;8.60;99.90
12853;DHT22;6495;51.808;7.478;2023-02-22T10:29:47;8.70;99.90
12853;DHT22;6495;51.808;7.478;2023-02-22T10:32:23;8.90;99.90
12853;DHT22;6495;51.808;7.478;2023-02-22T10:34:57;9.00;99.90
12853;DHT22;6495;51.808;7.478;2023-02-22T10:37:32;9.10;99.90
12853;DHT22;6495;51.808;7.478;2023-02-22T10:40:12;9.20;99.90
12853;DHT22;6495;51.808;7.478;2023-02-22T10:42:44;9.30;99.90
12853;DHT22;6495;51.808;7.478;2023-02-22T10:45:20;9.40;99.90
12853;DHT22;6495;51.808;7.478;2023-02-22T10:47:54;9.50;99.90
12853;DHT22;6495;51.808;7.478;2023-02-22T10:50:25;9.60;99.90
12853;DHT22;6495;51.808;7.478;2023-02-22T10:52:56;9.70;99.90
12853;DHT22;6495;51.808;7.478;2023-02-22T10:55:24;9.80;99.90
12853;DHT22;6495;51.808;7.478;2023-02-22T10:58:01;10.00;99.90
12853;DHT22;6495;51.808;7.478;2023-02-22T11:00:34;10.10;99.90
12853;DHT22;6495;51.808;7.478;2023-02-22T11:03:14;10.20;99.90
12853;DHT22;6495;51.808;7.478;2023-02-22T11:05:44;10.30;99.90
12853;DHT22;6495;51.808;7.478;2023-02-22T11:08:24;10.30;99.90
12853;DHT22;6495;51.808;7.478;2023-02-22T11:10:56;10.40;99.90
12853;DHT22;6495;51.808;7.478;2023-02-22T11:13:30;10.50;99.90
12853;DHT22;6495;51.808;7.478;2023-02-22T11:16:02;10.60;99.90
12853;DHT22;6495;51.808;7.478;2023-02-22T11:18:46;10.70;99.90
12853;DHT22;6495;51.808;7.478;2023-02-22T11:21:20;10.70;99.90
12853;DHT22;6495;51.808;7.478;2023-02-22T11:24:00;10.80;99.90
12853;DHT22;6495;51.808;7.478;2023-02-22T11:26:36;10.90;99.90
12853;DHT22;6495;51.808;7.478;2023-02-22T11:29:14;11.00;99.90
12853;DHT22;6495;51.808;7.478;2023-02-22T11:31:47;11.10;99.90
12853;DHT22;6495;51.808;7.478;2023-02-22T11:34:30;11.10;99.90
12853;DHT22;6495;51.808;7.478;2023-02-22T11:37:22;11.20;99.90
12853;DHT22;6495;51.808;7.478;2023-02-22T11:40:12;11.30;99.90
12853;DHT22;6495;51.808;7.478;2023-02-22T11:42:45;11.20;99.90
12853;DHT22;6495;51.808;7.478;2023-02-22T11:45:17;11.30;99.90
12853;DHT22;6495;51.808;7.478;2023-02-22T11:47:51;11.40;99.90
12853;DHT22;6495;51.808;7.478;2023-02-22T11:50:26;11.30;99.90
12853;DHT22;6495;51.808;7.478;2023-02-22T11:53:20;11.40;99.90
12853;DHT22;6495;51.808;7.478;2023-02-22T11:56:07;11.40;99.90
12853;DHT22;6495;51.808;7.478;2023-02-22T11:58:46;11.50;99.90
12853;DHT22;6495;51.808;7.478;2023-02-22T12:01:23;11.50;99.90
12853;DHT22;6495;51.808;7.478;2023-02-22T12:04:21;11.60;99.90
12853;DHT22;6495;51.808;7.478;2023-02-22T12:07:19;11.70;99.90
12853;DHT22;6495;51.808;7.478;2023-02-22T12:10:06;11.80;99.90
12853;DHT22;6495;51.808;7.478;2023-02-22T12:12:56;11.80;99.90
12853;DHT22;6495;51.808;7.478;2023-02-22T12:15:37;11.90;99.90
12853;DHT22;6495;51.808;7.478;2023-02-22T12:18:17;12.00;99.90
12853;DHT22;6495;51.808;7.478;2023-02-22T12:20:54;12.00;99.90
12853;DHT22;6495;51.808;7.478;2023-02-22T12:23:29;12.00;99.90
12853;DHT22;6495;51.808;7.478;2023-02-22T12:26:09;12.10;99.90
12853;DHT22;6495;51.808;7.478;2023-02-22T12:28:45;12.20;99.90
12853;DHT22;6495;51.808;7.478;2023-02-22T12:31:21;12.30;99.90
12853;DHT22;6495;51.808;7.478;2023-02-22T12:33:57;12.40;99.90
12853;DHT22;6495;51.808;7.478;2023-02-22T12:36:52;12.50;99.90
12853;DHT22;6495;51.808;7.478;2023-02-22T12:39:34;12.60;99.90
12853;DHT22;6495;51.808;7.478;2023-02-22T12:42:23;12.60;99.90
12853;DHT22;6495;51.808;7.478;2023-02-22T12:45:00;12.70;99.90
12853;DHT22;6495;51.808;7.478;2023-02-22T12:47:37;12.80;99.90
12853;DHT22;6495;51.808;7.478;2023-02-22T12:50:19;12.80;99.90
12853;DHT22;6495;51.808;7.478;2023-02-22T12:52:52;12.90;99.90
12853;DHT22;6495;51.808;7.478;2023-02-22T12:55:26;13.00;99.90
12853;DHT22;6495;51.808;7.478;2023-02-22T12:58:06;13.10;99.90
12853;DHT22;6495;51.808;7.478;2023-02-22T13:00:47;13.10;99.90
12853;DHT22;6495;51.808;7.478;2023-02-22T13:03:30;13.20;99.90
12853;DHT22;6495;51.808;7.478;2023-02-22T13:06:16;13.20;99.90
12853;DHT22;6495;51.808;7.478;2023-02-22T13:09:02;13.30;99.90
12853;DHT22;6495;51.808;7.478;2023-02-22T13:11:44;13.40;99.90
12853;DHT22;6495;51.808;7.478;2023-02-22T13:14:37;13.40;99.90
12853;DHT22;6495;51.808;7.478;2023-02-22T13:17:15;13.40;99.90
12853;DHT22;6495;51.808;7.478;2023-02-22T13:19:57;13.50;99.90
12853;DHT22;6495;51.808;7.478;2023-02-22T13:22:36;13.50;99.90
12853;DHT22;6495;51.808;7.478;2023-02-22T13:25:14;13.50;99.90
12853;DHT22;6495;51.808;7.478;2023-02-22T13:27:50;13.60;99.90
12853;DHT22;6495;51.808;7.478;2023-02-22T13:30:28;13.60;99.90
12853;DHT22;6495;51.808;7.478;2023-02-22T13:33:24;13.60;99.90
12853;DHT22;6495;51.808;7.478;2023-02-22T13:36:19;13.70;99.90
12853;DHT22;6495;51.808;7.478;2023-02-22T13:39:18;13.70;99.90
12853;DHT22;6495;51.808;7.478;2023-02-22T13:42:22;13.80;99.90
12853;DHT22;6495;51.808;7.478;2023-02-22T13:45:32;13.80;99.90
12853;DHT22;6495;51.808;7.478;2023-02-22T13:48:31;13.80;99.90
12853;DHT22;6495;51.808;7.478;2023-02-22T13:51:30;13.80;99.90
12853;DHT22;6495;51.808;7.478;2023-02-22T13:54:17;13.80;99.90
12853;DHT22;6495;51.808;7.478;2023-02-22T13:56:51;13.80;99.90
12853;DHT22;6495;51.808;7.478;2023-02-22T13:59:28;13.90;99.90
12853;DHT22;6495;51.808;7.478;2023-02-22T14:02:02;13.90;99.90
12853;DHT22;6495;51.808;7.478;2023-02-22T14:04:39;13.90;99.90
12853;DHT22;6495;51.808;7.478;2023-02-22T14:10:45;14.00;99.90
12853;DHT22;6495;51.808;7.478;2023-02-22T14:13:17;14.00;99.90
12853;DHT22;6495;51.808;7.478;2023-02-22T14:16:19;14.10;99.90
12853;DHT22;6495;51.808;7.478;2023-02-22T14:19:00;14.10;99.90
12853;DHT22;6495;51.808;7.478;2023-02-22T14:21:32;14.20;99.90
12853;DHT22;6495;51.808;7.478;2023-02-22T14:24:06;14.10;99.90
12853;DHT22;6495;51.808;7.478;2023-02-22T14:26:56;14.20;99.90
12853;DHT22;6495;51.808;7.478;2023-02-22T14:29:27;14.10;99.90
12853;DHT22;6495;51.808;7.478;2023-02-22T14:32:00;14.10;99.90
12853;DHT22;6495;51.808;7.478;2023-02-22T14:34:43;14.10;99.90
12853;DHT22;6495;51.808;7.478;2023-02-22T14:37:18;14.20;99.90
12853;DHT22;6495;51.808;7.478;2023-02-22T14:39:52;14.20;99.90
12853;DHT22;6495;51.808;7.478;2023-02-22T14:42:33;14.20;99.90
12853;DHT22;6495;51.808;7.478;2023-02-22T14:45:13;14.20;99.90
12853;DHT22;6495;51.808;7.478;2023-02-22T14:47:50;14.30;99.90
12853;DHT22;6495;51.808;7.478;2023-02-22T14:50:32;14.30;99.90
12853;DHT22;6495;51.808;7.478;2023-02-22T14:53:15;14.30;99.90
12853;DHT22;6495;51.808;7.478;2023-02-22T14:55:55;14.40;99.90
12853;DHT22;6495;51.808;7.478;2023-02-22T14:58:33;14.40;99.90
12853;DHT22;6495;51.808;7.478;2023-02-22T15:01:22;14.40;99.90
12853;DHT22;6495;51.808;7.478;2023-02-22T15:04:20;14.40;99.90
12853;DHT22;6495;51.808;7.478;2023-02-22T15:06:51;14.40;99.90
12853;DHT22;6495;51.808;7.478;2023-02-22T15:09:22;14.40;99.90
12853;DHT22;6495;51.808;7.478;2023-02-22T15:12:10;14.40;99.90
12853;DHT22;6495;51.808;7.478;2023-02-22T15:14:45;14.50;99.90
12853;DHT22;6495;51.808;7.478;2023-02-22T15:17:17;14.50;99.90
12853;DHT22;6495;51.808;7.478;2023-02-22T15:19:48;14.50;99.90
12853;DHT22;6495;51.808;7.478;2023-02-22T15:22:21;14.50;99.90
12853;DHT22;6495;51.808;7.478;2023-02-22T15:24:58;14.60;99.90
12853;DHT22;6495;51.808;7.478;2023-02-22T15:27:28;14.60;99.90
12853;DHT22;6495;51.808;7.478;2023-02-22T15:30:05;14.60;99.90
12853;DHT22;6495;51.808;7.478;2023-02-22T15:32:52;14.60;99.90
12853;DHT22;6495;51.808;7.478;2023-02-22T15:35:31;14.60;99.90
12853;DHT22;6495;51.808;7.478;2023-02-22T15:38:01;14.60;99.90
12853;DHT22;6495;51.808;7.478;2023-02-22T15:40:32;14.60;99.90
12853;DHT22;6495;51.808;7.478;2023-02-22T15:43:02;14.60;99.90
12853;DHT22;6495;51.808;7.478;2023-02-22T15:45:36;14.60;99.90
12853;DHT22;6495;51.808;7.478;2023-02-22T15:48:09;14.60;99.90
12853;DHT22;6495;51.808;7.478;2023-02-22T15:50:37;14.60;99.90
12853;DHT22;6495;51.808;7.478;2023-02-22T15:53:07;14.60;99.90
12853;DHT22;6495;51.808;7.478;2023-02-22T15:55:54;14.60;99.90
12853;DHT22;6495;51.808;7.478;2023-02-22T15:58:26;14.60;99.90
12853;DHT22;6495;51.808;7.478;2023-02-22T16:01:01;14.60;99.90
12853;DHT22;6495;51.808;7.478;2023-02-22T16:03:34;14.60;99.90
12853;DHT22;6495;51.808;7.478;2023-02-22T16:06:13;14.60;99.90
12853;DHT22;6495;51.808;7.478;2023-02-22T16:08:49;14.60;99.90
12853;DHT22;6495;51.808;7.478;2023-02-22T16:11:24;14.60;99.90
12853;DHT22;6495;51.808;7.478;2023-02-22T16:13:59;14.50;99.90
12853;DHT22;6495;51.808;7.478;2023-02-22T16:16:33;14.40;99.90
12853;DHT22;6495;51.808;7.478;2023-02-22T16:19:26;14.40;99.90
12853;DHT22;6495;51.808;7.478;2023-02-22T16:22:00;14.40;99.90
12853;DHT22;6495;51.808;7.478;2023-02-22T16:24:31;14.30;99.90
12853;DHT22;6495;51.808;7.478;2023-02-22T16:27:05;14.30;99.90
12853;DHT22;6495;51.808;7.478;2023-02-22T16:29:43;14.30;99.90
12853;DHT22;6495;51.808;7.478;2023-02-22T16:32:28;14.20;99.90
12853;DHT22;6495;51.808;7.478;2023-02-22T16:34:56;14.20;99.90
12853;DHT22;6495;51.808;7.478;2023-02-22T16:37:24;14.20;99.90
12853;DHT22;6495;51.808;7.478;2023-02-22T16:39:54;14.20;99.90
12853;DHT22;6495;51.808;7.478;2023-02-22T16:42:22;14.20;99.90
12853;DHT22;6495;51.808;7.478;2023-02-22T16:44:51;14.20;99.90
12853;DHT22;6495;51.808;7.478;2023-02-22T16:47:19;14.10;99.90
12853;DHT22;6495;51.808;7.478;2023-02-22T16:49:50;14.10;99.90
12853;DHT22;6495;51.808;7.478;2023-02-22T16:52:19;14.00;99.90
12853;DHT22;6495;51.808;7.478;2023-02-22T16:54:48;14.00;99.90
12853;DHT22;6495;51.808;7.478;2023-02-22T16:57:20;14.00;99.90
12853;DHT22;6495;51.808;7.478;2023-02-22T16:59:49;13.90;99.90